CheckWX is a tool to help pilots better visualize weather data.  It is not intended as a substitute for an official pre-flight weather briefing.

17:58:14 UTC

EETU METAR
Tartu Airport
Tartu, Estonia
Current

1 hour ago

EETU 251650Z AUTO 21003KT 9999 NCD 22/11 Q1027
Observed
Aug-25 @ 16:50 UTC
Wind
  • 210° at 3 KTS
Visibility
10,000+ meters
Flight Rules
VFR
Cloud Levels
  • Clear skies
Temperature
22°C / 72°F
Dewpoint
11°C / 52°F
Humidity
50%
Altimeter
30.32" Hg
Pressure
1026.92 hPa
Previous

2 hours ago

EETU 251550Z AUTO 23005KT 9999 NCD 22/10 Q1027
Observed
Aug-25 @ 15:50 UTC
Wind
  • 230° at 5 KTS
Visibility
10,000+ meters
Flight Rules
VFR
Cloud Levels
  • Clear skies
Temperature
22°C / 72°F
Dewpoint
10°C / 50°F
Humidity
47%
Altimeter
30.32" Hg
Pressure
1026.92 hPa
Previous

3 hours ago

EETU 251450Z AUTO 18004KT 120V230 9999 NCD 22/10 Q1028
Observed
Aug-25 @ 14:50 UTC
Wind
  • 180° at 4 KTS
Visibility
10,000+ meters
Flight Rules
VFR
Cloud Levels
  • Clear skies
Temperature
22°C / 72°F
Dewpoint
10°C / 50°F
Humidity
47%
Altimeter
30.35" Hg
Pressure
1027.92 hPa